createdAt,value
2022-09-20T00:01:35.947Z,10.42
2022-09-20T00:04:07.045Z,11.13
2022-09-20T00:06:36.672Z,10.60
2022-09-20T00:09:06.416Z,10.72
2022-09-20T00:11:37.057Z,11.34
2022-09-20T00:14:09.405Z,11.68
2022-09-20T00:16:42.471Z,11.40
2022-09-20T00:19:19.860Z,10.48
2022-09-20T00:21:48.973Z,10.62
2022-09-20T00:24:17.563Z,10.38
2022-09-20T00:26:46.216Z,10.20
2022-09-20T00:29:15.389Z,11.21
2022-09-20T00:31:45.402Z,10.79
2022-09-20T00:34:31.541Z,11.01
2022-09-20T00:37:00.303Z,11.29
2022-09-20T00:39:29.034Z,11.83
2022-09-20T00:41:57.658Z,11.59
2022-09-20T00:44:45.497Z,11.83
2022-09-20T00:47:35.691Z,10.82
2022-09-20T00:50:28.949Z,10.70
2022-09-20T00:53:05.500Z,11.57
2022-09-20T00:55:39.633Z,12.17
2022-09-20T00:58:09.773Z,11.04
2022-09-20T01:00:40.185Z,11.03
2022-09-20T01:03:12.400Z,11.43
2022-09-20T01:05:45.401Z,11.42
2022-09-20T01:08:14.866Z,10.26
2022-09-20T01:10:44.004Z,10.53
2022-09-20T01:13:12.680Z,11.60
2022-09-20T01:15:43.903Z,10.80
2022-09-20T01:18:16.146Z,11.17
2022-09-20T01:20:48.397Z,11.61
2022-09-20T01:23:50.862Z,10.85
2022-09-20T01:27:06.943Z,11.74
2022-09-20T01:30:08.300Z,11.60
2022-09-20T01:32:57.778Z,10.98
2022-09-20T01:35:29.107Z,10.77
2022-09-20T01:38:27.050Z,10.82
2022-09-20T01:41:06.052Z,10.68
2022-09-20T01:43:42.718Z,10.34
2022-09-20T01:46:31.966Z,9.96
2022-09-20T01:49:21.198Z,9.98
2022-09-20T01:52:53.964Z,10.55
2022-09-20T01:56:14.595Z,11.45
2022-09-20T01:59:24.694Z,10.59
2022-09-20T02:02:40.783Z,10.38
2022-09-20T02:05:43.423Z,11.26
2022-09-20T02:09:07.914Z,10.70
2022-09-20T02:11:52.222Z,10.59
2022-09-20T02:14:54.138Z,10.46
2022-09-20T02:17:35.482Z,10.68
2022-09-20T02:20:33.377Z,11.17
2022-09-20T02:23:24.738Z,10.39
2022-09-20T02:26:21.277Z,10.34
2022-09-20T02:29:03.127Z,11.50
2022-09-20T02:32:00.030Z,11.41
2022-09-20T02:34:52.443Z,11.06
2022-09-20T02:38:04.909Z,11.19
2022-09-20T02:41:07.066Z,10.62
2022-09-20T02:43:49.440Z,11.60
2022-09-20T02:46:29.437Z,11.05
2022-09-20T02:49:09.002Z,10.78
2022-09-20T02:51:44.898Z,10.34
2022-09-20T02:54:35.189Z,10.19
2022-09-20T02:57:16.870Z,10.93
2022-09-20T02:59:53.729Z,10.94
2022-09-20T03:02:31.735Z,11.12
2022-09-20T03:05:15.677Z,10.92
2022-09-20T03:08:20.291Z,11.72
2022-09-20T03:11:00.374Z,10.52
2022-09-20T03:13:50.351Z,10.51
2022-09-20T03:16:33.566Z,11.15
2022-09-20T03:19:18.285Z,9.90
2022-09-20T03:22:04.542Z,10.73
2022-09-20T03:24:53.241Z,10.06
2022-09-20T03:27:31.995Z,10.73
2022-09-20T03:30:34.168Z,11.28
2022-09-20T03:33:16.931Z,10.88
2022-09-20T03:36:08.707Z,10.36
2022-09-20T03:38:58.441Z,10.72
2022-09-20T03:41:58.041Z,10.77
2022-09-20T03:44:48.761Z,11.01
2022-09-20T03:47:42.871Z,11.41
2022-09-20T03:50:34.836Z,10.88
2022-09-20T03:53:58.894Z,10.88
2022-09-20T03:56:48.529Z,10.43
2022-09-20T04:00:01.813Z,11.64
2022-09-20T04:02:54.901Z,11.34
2022-09-20T04:05:45.907Z,11.31
2022-09-20T04:08:40.048Z,10.70
2022-09-20T04:11:23.235Z,10.10
2022-09-20T04:13:59.257Z,10.04
2022-09-20T04:16:42.494Z,10.93
2022-09-20T04:19:23.450Z,10.17
2022-09-20T04:21:57.370Z,11.29
2022-09-20T04:24:41.923Z,10.66
2022-09-20T04:27:20.664Z,10.76
2022-09-20T04:30:00.316Z,10.78
2022-09-20T04:32:41.197Z,11.41
2022-09-20T04:35:54.034Z,11.47
2022-09-20T04:38:23.955Z,10.80
2022-09-20T04:41:51.355Z,11.53
2022-09-20T04:45:17.016Z,11.32
2022-09-20T04:48:35.900Z,10.87
2022-09-20T04:52:06.574Z,11.16
2022-09-20T04:55:25.245Z,11.25
2022-09-20T04:58:42.304Z,11.17
2022-09-20T05:02:15.652Z,9.88
2022-09-20T05:05:31.756Z,10.22
2022-09-20T05:08:58.890Z,11.19
2022-09-20T05:12:14.052Z,10.53
2022-09-20T05:15:19.173Z,10.48
2022-09-20T05:18:17.927Z,10.88
2022-09-20T05:21:11.522Z,11.41
2022-09-20T05:24:01.619Z,10.96
2022-09-20T05:26:51.422Z,11.35
2022-09-20T05:29:32.718Z,11.36
2022-09-20T05:32:13.036Z,11.36
2022-09-20T05:34:52.059Z,11.23
2022-09-20T05:37:39.009Z,11.86
2022-09-20T05:40:24.978Z,11.54
2022-09-20T05:43:03.893Z,10.73
2022-09-20T05:50:46.075Z,11.12
2022-09-20T05:54:16.085Z,11.60
2022-09-20T05:56:56.383Z,11.73
2022-09-20T05:59:42.747Z,11.65
2022-09-20T06:02:39.926Z,11.29
2022-09-20T06:05:17.654Z,11.88
2022-09-20T06:08:18.778Z,10.78
2022-09-20T06:11:37.767Z,12.04
2022-09-20T06:14:25.337Z,11.73
2022-09-20T06:17:06.121Z,11.72
2022-09-20T06:19:45.552Z,11.88
2022-09-20T06:22:23.984Z,11.93
2022-09-20T06:25:02.690Z,11.34
2022-09-20T06:27:40.778Z,11.32
2022-09-20T06:30:19.115Z,11.19
2022-09-20T06:33:00.706Z,11.73
2022-09-20T06:35:39.079Z,10.96
2022-09-20T06:39:04.713Z,11.34
2022-09-20T06:41:37.734Z,11.73
2022-09-20T06:44:08.399Z,11.84
2022-09-20T06:46:38.574Z,11.00
2022-09-20T06:49:09.624Z,11.90
2022-09-20T06:51:40.621Z,11.72
2022-09-20T06:54:18.578Z,12.39
2022-09-20T06:56:50.111Z,11.68
2022-09-20T06:59:20.083Z,11.80
2022-09-20T07:01:49.056Z,11.72
2022-09-20T07:04:17.821Z,11.53
2022-09-20T07:06:46.424Z,12.50
2022-09-20T07:09:15.283Z,11.80
2022-09-20T07:11:46.307Z,12.47
2022-09-20T07:14:15.629Z,11.36
2022-09-20T07:16:45.890Z,11.68
2022-09-20T07:19:15.126Z,11.62
2022-09-20T07:21:43.774Z,11.68
2022-09-20T07:24:15.161Z,12.20
2022-09-20T07:26:57.829Z,12.46
2022-09-20T07:29:27.220Z,11.95
2022-09-20T07:36:29.386Z,11.40
2022-09-20T07:38:58.290Z,11.88
2022-09-20T07:41:30.517Z,12.89
2022-09-20T07:44:20.091Z,12.04
2022-09-20T07:46:49.753Z,11.82
2022-09-20T07:49:18.760Z,11.50
2022-09-20T07:51:49.016Z,11.70
2022-09-20T07:54:18.603Z,11.44
2022-09-20T07:56:48.298Z,11.59
2022-09-20T07:59:17.568Z,12.44
2022-09-20T08:06:21.456Z,11.52
2022-09-20T08:08:52.332Z,12.13
2022-09-20T08:11:28.686Z,11.31
2022-09-20T08:14:08.017Z,12.35
2022-09-20T08:16:42.878Z,12.78
2022-09-20T08:19:17.691Z,13.16
2022-09-20T08:21:46.989Z,13.09
2022-09-20T08:24:17.801Z,12.05
2022-09-20T08:26:46.696Z,12.99
2022-09-20T08:29:16.111Z,12.81
2022-09-20T08:31:45.274Z,13.04
2022-09-20T08:34:16.193Z,12.71
2022-09-20T08:36:50.130Z,13.10
2022-09-20T08:42:20.054Z,12.77
2022-09-20T08:44:58.741Z,11.91
2022-09-20T08:47:32.089Z,12.82
2022-09-20T08:50:16.834Z,12.76
2022-09-20T08:52:49.397Z,13.67
2022-09-20T08:55:23.132Z,13.16
2022-09-20T08:57:56.320Z,13.08
2022-09-20T09:00:29.778Z,14.39
2022-09-20T09:03:05.403Z,14.20
2022-09-20T09:05:38.344Z,13.33
2022-09-20T09:08:16.478Z,12.48
2022-09-20T09:10:52.887Z,12.60
2022-09-20T09:13:32.847Z,12.69
2022-09-20T09:16:10.778Z,13.88
2022-09-20T09:23:44.790Z,13.84
2022-09-20T09:26:22.543Z,13.41
2022-09-20T09:29:16.671Z,12.84
2022-09-20T09:31:47.186Z,12.56
2022-09-20T09:34:35.409Z,12.25
2022-09-20T09:37:04.412Z,13.21
2022-09-20T09:44:11.048Z,13.65
2022-09-20T09:46:41.468Z,13.40
2022-09-20T09:49:17.274Z,13.52
2022-09-20T09:52:05.442Z,13.94
2022-09-20T09:54:39.509Z,14.17
2022-09-20T09:57:26.902Z,14.34
2022-09-20T10:00:16.064Z,14.59
2022-09-20T10:03:17.092Z,13.98
2022-09-20T10:06:04.953Z,13.35
2022-09-20T10:08:49.820Z,13.80
2022-09-20T10:11:38.957Z,14.12
2022-09-20T10:14:29.643Z,14.48
2022-09-20T10:17:20.747Z,14.54
2022-09-20T10:20:16.477Z,15.80
2022-09-20T10:23:29.962Z,15.60
2022-09-20T10:25:58.346Z,15.27
2022-09-20T10:28:50.443Z,14.69
2022-09-20T10:31:42.568Z,15.87
2022-09-20T10:34:45.060Z,15.42
2022-09-20T10:37:23.491Z,15.62
2022-09-20T10:40:08.312Z,16.13
2022-09-20T10:43:05.439Z,15.94
2022-09-20T10:50:28.225Z,15.99
2022-09-20T10:53:13.705Z,16.63
2022-09-20T10:55:53.066Z,17.34
2022-09-20T10:59:04.344Z,16.62
2022-09-20T11:01:43.575Z,16.31
2022-09-20T11:04:59.057Z,15.84
2022-09-20T11:07:48.708Z,16.85
2022-09-20T11:10:24.361Z,15.98
2022-09-20T11:13:02.241Z,16.31
2022-09-20T11:15:41.791Z,16.22
2022-09-20T11:18:23.637Z,16.70
2022-09-20T11:21:08.172Z,16.47
2022-09-20T11:23:51.037Z,15.87
2022-09-20T11:26:28.914Z,15.31
2022-09-20T11:29:06.105Z,16.68
2022-09-20T11:31:42.999Z,16.91
2022-09-20T11:34:22.197Z,17.71
2022-09-20T11:36:58.836Z,17.56
2022-09-20T11:39:38.223Z,17.06
2022-09-20T11:42:13.133Z,16.64
2022-09-20T11:44:43.884Z,17.63
2022-09-20T11:47:42.865Z,17.87
2022-09-20T11:51:07.142Z,17.29
2022-09-20T11:58:13.429Z,17.46
2022-09-20T12:00:47.914Z,16.92
2022-09-20T12:03:33.653Z,17.61
2022-09-20T12:06:05.642Z,16.76
2022-09-20T12:08:38.981Z,16.81
2022-09-20T13:04:56.423Z,16.96
2022-09-20T13:07:42.764Z,17.40
2022-09-20T13:10:27.594Z,17.50
2022-09-20T13:13:04.751Z,17.36
2022-09-20T13:15:34.931Z,17.63
2022-09-20T13:18:04.075Z,18.21
2022-09-20T13:20:35.892Z,17.84
2022-09-20T13:23:06.479Z,17.76
2022-09-20T13:25:40.034Z,17.55
2022-09-20T13:28:21.407Z,17.98
2022-09-20T13:30:50.083Z,17.40
2022-09-20T13:33:24.429Z,17.27
2022-09-20T13:40:34.331Z,17.77
2022-09-20T13:43:23.007Z,17.75
2022-09-20T13:45:57.374Z,17.36
2022-09-20T13:48:28.582Z,17.55
2022-09-20T13:50:58.789Z,16.45
2022-09-20T13:53:41.428Z,17.70
2022-09-20T13:56:22.531Z,17.16
2022-09-20T13:58:52.786Z,17.33
2022-09-20T14:01:30.966Z,17.33
2022-09-20T14:04:07.974Z,18.08
2022-09-20T14:06:37.910Z,17.93
2022-09-20T14:09:11.506Z,17.60
2022-09-20T14:11:42.122Z,17.77
2022-09-20T14:14:19.889Z,17.59
2022-09-20T14:16:54.177Z,17.53
2022-09-20T14:19:32.259Z,16.88
2022-09-20T14:22:06.418Z,16.54
2022-09-20T14:24:37.529Z,15.97
2022-09-20T14:27:22.248Z,15.61
2022-09-20T14:29:53.252Z,15.41
2022-09-20T14:32:48.160Z,15.66
2022-09-20T14:35:20.425Z,15.66
2022-09-20T14:37:53.161Z,15.62
2022-09-20T14:44:55.242Z,15.52
2022-09-20T14:47:30.163Z,16.12
2022-09-20T14:49:59.141Z,16.14
2022-09-20T14:52:43.742Z,16.76
2022-09-20T14:55:28.389Z,16.47
2022-09-20T14:58:05.581Z,16.61
2022-09-20T15:00:51.753Z,16.23
2022-09-20T15:03:28.317Z,16.44
2022-09-20T15:05:57.488Z,15.75
2022-09-20T15:08:26.518Z,15.47
2022-09-20T15:10:55.078Z,15.23
2022-09-20T15:13:24.039Z,14.91
2022-09-20T15:15:55.408Z,15.39
2022-09-20T15:18:27.316Z,15.37
2022-09-20T15:20:56.755Z,15.55
2022-09-20T15:23:25.388Z,14.49
2022-09-20T15:25:56.342Z,15.76
2022-09-20T15:28:26.765Z,14.79
2022-09-20T15:30:58.604Z,15.28
2022-09-20T15:33:32.330Z,14.46
2022-09-20T15:36:03.263Z,14.16
2022-09-20T15:38:32.220Z,14.35
2022-09-20T15:41:04.745Z,14.20
2022-09-20T15:43:34.033Z,13.92
2022-09-20T15:46:20.503Z,13.83
2022-09-20T15:48:49.698Z,13.64
2022-09-20T15:51:18.516Z,13.54
2022-09-20T15:53:55.577Z,13.40
2022-09-20T15:56:27.458Z,13.33
2022-09-20T15:59:00.339Z,13.32
2022-09-20T16:01:34.003Z,13.26
2022-09-20T16:04:07.561Z,13.34
2022-09-20T16:06:37.355Z,13.42
2022-09-20T16:09:07.735Z,13.37
2022-09-20T16:11:37.693Z,13.31
2022-09-20T16:14:07.739Z,13.74
2022-09-20T16:16:40.635Z,14.21
2022-09-20T16:19:20.926Z,13.95
2022-09-20T16:21:57.651Z,13.47
2022-09-20T16:24:30.592Z,14.00
2022-09-20T16:27:01.355Z,13.46
2022-09-20T16:29:31.476Z,13.49
2022-09-20T16:32:03.959Z,13.35
2022-09-20T16:34:34.962Z,13.10
2022-09-20T16:37:09.346Z,13.02
2022-09-20T16:39:38.599Z,13.36
2022-09-20T16:42:09.092Z,13.60
2022-09-20T16:44:40.521Z,13.03
2022-09-20T16:47:21.974Z,12.86
2022-09-20T16:49:51.986Z,12.69
2022-09-20T16:52:20.996Z,12.60
2022-09-20T16:54:49.968Z,12.57
2022-09-20T16:57:19.266Z,12.63
2022-09-20T16:59:48.264Z,12.56
2022-09-20T17:02:18.823Z,13.17
2022-09-20T17:04:47.567Z,12.95
2022-09-20T17:07:16.413Z,12.62
2022-09-20T17:09:45.544Z,12.47
2022-09-20T17:12:15.076Z,12.47
2022-09-20T17:14:44.137Z,12.44
2022-09-20T17:17:13.580Z,12.41
2022-09-20T17:19:43.528Z,12.40
2022-09-20T17:22:12.864Z,12.45
2022-09-20T17:24:42.076Z,12.56
2022-09-20T17:27:11.344Z,12.64
2022-09-20T17:29:40.146Z,13.04
2022-09-20T17:32:09.081Z,12.83
2022-09-20T17:34:37.944Z,12.77
2022-09-20T17:37:08.239Z,13.36
2022-09-20T17:39:36.831Z,12.73
2022-09-20T17:42:05.869Z,12.69
2022-09-20T17:44:36.821Z,12.50
2022-09-20T17:47:06.397Z,12.40
2022-09-20T17:49:35.006Z,12.35
2022-09-20T17:52:07.977Z,12.39
2022-09-20T17:54:37.898Z,12.29
2022-09-20T17:57:06.728Z,12.19
2022-09-20T17:59:36.690Z,12.22
2022-09-20T18:02:05.822Z,12.16
2022-09-20T18:04:34.547Z,12.41
2022-09-20T18:07:04.174Z,12.62
2022-09-20T18:09:32.774Z,12.25
2022-09-20T18:12:04.997Z,12.25
2022-09-20T18:14:33.564Z,12.31
2022-09-20T18:17:02.229Z,12.13
2022-09-20T18:19:33.956Z,12.04
2022-09-20T18:22:03.584Z,12.06
2022-09-20T18:24:32.724Z,12.76
2022-09-20T18:27:04.399Z,12.60
2022-09-20T18:29:36.720Z,12.17
2022-09-20T18:32:08.522Z,12.06
2022-09-20T18:34:37.283Z,12.36
2022-09-20T18:37:10.068Z,12.04
2022-09-20T18:39:43.058Z,12.41
2022-09-20T18:42:13.167Z,11.77
2022-09-20T18:44:43.926Z,11.84
2022-09-20T18:47:12.661Z,11.81
2022-09-20T18:49:41.435Z,11.48
2022-09-20T18:52:12.486Z,11.36
2022-09-20T18:54:41.365Z,11.30
2022-09-20T18:57:13.473Z,11.22
2022-09-20T18:59:53.635Z,11.18
2022-09-20T19:02:49.364Z,11.24
2022-09-20T19:05:29.438Z,11.09
2022-09-20T19:08:26.766Z,11.13
2022-09-20T19:11:04.516Z,11.16
2022-09-20T19:13:46.044Z,11.34
2022-09-20T19:16:22.358Z,11.27
2022-09-20T19:19:26.562Z,11.44
2022-09-20T19:22:16.317Z,11.44
2022-09-20T19:25:16.592Z,11.29
2022-09-20T19:27:46.226Z,11.34
2022-09-20T19:30:18.066Z,11.58
2022-09-20T19:32:48.082Z,11.44
2022-09-20T19:35:25.159Z,11.49
2022-09-20T19:42:39.114Z,11.82
2022-09-20T19:45:25.445Z,11.50
2022-09-20T19:48:07.938Z,11.37
2022-09-20T19:50:44.729Z,11.28
2022-09-20T19:53:14.945Z,11.32
2022-09-20T19:55:49.033Z,11.65
2022-09-20T19:58:18.625Z,11.32
2022-09-20T20:00:49.741Z,11.23
2022-09-20T20:03:19.097Z,11.24
2022-09-20T20:06:07.205Z,12.18
2022-09-20T20:13:42.983Z,11.91
2022-09-20T20:16:21.020Z,11.90
2022-09-20T20:19:14.207Z,11.86
2022-09-20T20:21:52.727Z,11.65
2022-09-20T20:28:53.694Z,11.05
2022-09-20T20:31:24.266Z,10.90
2022-09-20T20:43:02.051Z,10.94
2022-09-20T20:45:31.271Z,10.83
2022-09-20T20:48:01.294Z,10.59
2022-09-20T20:50:30.589Z,10.61
2022-09-20T20:57:32.063Z,10.62
2022-09-20T21:00:00.829Z,10.47
2022-09-20T21:02:29.566Z,10.65
2022-09-20T21:04:59.552Z,10.54
2022-09-20T21:12:02.550Z,10.57
2022-09-20T21:14:31.967Z,11.25
2022-09-20T21:17:01.875Z,11.74
2022-09-20T21:19:30.604Z,11.37
2022-09-20T21:22:00.759Z,11.53
2022-09-20T21:24:29.386Z,11.71
2022-09-20T21:26:57.934Z,11.06
2022-09-20T21:29:26.685Z,11.73
2022-09-20T21:31:55.540Z,11.80
2022-09-20T21:34:24.049Z,11.97
2022-09-20T21:36:52.802Z,12.27
2022-09-20T21:39:22.725Z,12.11
2022-09-20T21:41:52.617Z,12.41
2022-09-20T21:48:53.544Z,12.62
2022-09-20T21:51:23.310Z,11.75
2022-09-20T21:53:56.438Z,11.75
2022-09-20T21:56:28.988Z,12.21
2022-09-20T21:58:58.042Z,11.80
2022-09-20T22:01:29.439Z,12.22
2022-09-20T22:04:00.931Z,11.68
2022-09-20T22:06:33.736Z,12.54
2022-09-20T22:09:06.003Z,12.48
2022-09-20T22:11:39.967Z,12.46
2022-09-20T22:14:10.328Z,12.02
2022-09-20T22:16:41.660Z,11.36
2022-09-20T22:19:13.123Z,12.09
2022-09-20T22:21:44.560Z,11.65
2022-09-20T22:24:15.557Z,12.08
2022-09-20T22:26:47.940Z,12.37
2022-09-20T22:29:17.539Z,12.44
2022-09-20T22:31:49.210Z,11.55
2022-09-20T22:34:19.834Z,12.23
2022-09-20T22:41:21.897Z,12.39
2022-09-20T22:43:52.453Z,12.38
2022-09-20T22:46:24.450Z,12.41
2022-09-20T22:48:53.268Z,12.37
2022-09-20T22:51:24.889Z,12.14
2022-09-20T22:53:54.303Z,11.91
2022-09-20T22:56:25.820Z,11.97
2022-09-20T22:59:00.047Z,12.15
2022-09-20T23:01:31.494Z,11.79
2022-09-20T23:04:04.092Z,11.00
2022-09-20T23:06:36.979Z,11.66
2022-09-20T23:09:09.543Z,11.76
2022-09-20T23:11:39.818Z,11.54
2022-09-20T23:14:14.032Z,11.61
2022-09-20T23:16:44.358Z,11.20
2022-09-20T23:19:14.668Z,11.16
2022-09-20T23:21:44.920Z,11.63
2022-09-20T23:24:16.583Z,11.69
2022-09-20T23:26:46.306Z,11.21
2022-09-20T23:29:18.251Z,11.71
2022-09-20T23:31:47.984Z,10.62
2022-09-20T23:34:18.817Z,11.38
2022-09-20T23:36:47.952Z,10.73
2022-09-20T23:39:16.738Z,11.16
2022-09-20T23:41:50.702Z,11.47
2022-09-20T23:44:21.462Z,11.21
2022-09-20T23:46:50.238Z,11.74
2022-09-20T23:49:19.026Z,11.88
2022-09-20T23:51:47.646Z,11.71
2022-09-20T23:54:16.443Z,11.66
2022-09-20T23:56:44.974Z,12.08
2022-09-20T23:59:13.502Z,12.24
